Time;durP1;ratioP1;P1;durP2;ratioP2;P2;SDS_P1;SDS_P2;PMS_P1;PMS_P2;Temp;Humidity;BMP_temperature;BMP_pressure;BME280_temperature;BME280_humidity;BME280_pressure;Samples;Min_cycle;Max_cycle;Signal;HPM_P1;HPM_P2
2022/10/29 00:00:05;;;;;;;57.17;24.67;;;;;;;;;;6269798;28;20041;-64
2022/10/29 00:03:25;;;;;;;61.45;24.20;;;;;;;;;;6264674;28;20511;-64
2022/10/29 00:06:27;;;;;;;62.45;27.08;;;;;;;;;;6263986;28;20056;-64
2022/10/29 00:09:27;;;;;;;60.40;27.03;;;;;;;;;;6264787;28;20476;-64
2022/10/29 00:12:28;;;;;;;63.35;27.65;;;;;;;;;;6267341;28;20048;-64
2022/10/29 00:15:29;;;;;;;61.42;24.48;;;;;;;;;;6267534;28;20430;-64
2022/10/29 00:18:29;;;;;;;59.72;24.17;;;;;;;;;;6263910;28;20041;-64
2022/10/29 00:21:30;;;;;;;49.75;21.75;;;;;;;;;;6268415;28;20149;-64
2022/10/29 00:24:31;;;;;;;54.43;23.23;;;;;;;;;;6279148;28;20052;-63
2022/10/29 00:27:31;;;;;;;55.88;23.67;;;;;;;;;;6280006;28;20191;-63
2022/10/29 00:30:34;;;;;;;61.53;25.45;;;;;;;;;;6266271;28;20048;-64
2022/10/29 00:33:34;;;;;;;58.75;24.98;;;;;;;;;;6265125;28;20036;-64
2022/10/29 00:36:35;;;;;;;60.80;25.33;;;;;;;;;;6268819;28;20056;-63
2022/10/29 00:39:36;;;;;;;64.55;26.10;;;;;;;;;;6267532;28;20051;-64
2022/10/29 00:42:36;;;;;;;67.43;25.35;;;;;;;;;;6264549;28;20381;-64
2022/10/29 00:45:41;;;;;;;61.83;25.10;;;;;;;;;;6268124;28;20045;-64
2022/10/29 00:48:45;;;;;;;69.93;26.70;;;;;;;;;;6269016;28;20045;-64
2022/10/29 00:51:46;;;;;;;75.25;28.88;;;;;;;;;;6270124;28;20467;-64
2022/10/29 00:54:49;;;;;;;71.43;28.53;;;;;;;;;;6272833;28;20143;-64
2022/10/29 00:57:52;;;;;;;70.10;28.25;;;;;;;;;;6292403;28;20296;-64
2022/10/29 01:00:53;;;;;;;65.85;28.35;;;;;;;;;;6271045;28;20179;-64
2022/10/29 01:03:54;;;;;;;75.78;27.55;;;;;;;;;;6281142;28;20106;-64
2022/10/29 01:06:55;;;;;;;75.22;28.00;;;;;;;;;;6272677;28;20480;-63
2022/10/29 01:09:55;;;;;;;74.30;27.33;;;;;;;;;;6272192;28;20047;-64
2022/10/29 01:13:12;;;;;;;63.10;25.45;;;;;;;;;;6275160;28;20041;-64
2022/10/29 01:16:26;;;;;;;65.22;26.02;;;;;;;;;;6289821;28;20057;-64
2022/10/29 01:19:29;;;;;;;72.43;26.88;;;;;;;;;;6270283;28;20179;-64
2022/10/29 01:22:51;;;;;;;73.18;26.38;;;;;;;;;;6272902;28;20049;-64
2022/10/29 01:26:10;;;;;;;68.03;25.77;;;;;;;;;;6291930;28;20052;-64
2022/10/29 01:29:40;;;;;;;65.13;24.25;;;;;;;;;;6276360;28;20053;-64
2022/10/29 01:33:02;;;;;;;61.83;25.25;;;;;;;;;;6235815;28;20143;-64
2022/10/29 01:36:16;;;;;;;;;;;;;;;;;;6270101;28;22488;-64
2022/10/29 01:39:26;;;;;;;63.25;23.55;;;;;;;;;;6267300;28;19924;-64
2022/10/29 01:42:44;;;;;;;60.22;23.65;;;;;;;;;;6272591;28;20086;-65
2022/10/29 01:45:55;;;;;;;68.43;24.17;;;;;;;;;;6277501;28;21141;-64
2022/10/29 01:48:59;;;;;;;60.88;22.90;;;;;;;;;;6275767;28;20041;-64
2022/10/29 01:52:03;;;;;;;58.58;21.58;;;;;;;;;;6275666;28;20083;-64
2022/10/29 01:55:04;;;;;;;58.25;22.45;;;;;;;;;;6266446;28;20452;-64
2022/10/29 01:58:05;;;;;;;62.15;21.50;;;;;;;;;;6281019;28;20147;-64
2022/10/29 02:01:15;;;;;;;55.40;22.95;;;;;;;;;;6286003;28;20533;-65
2022/10/29 02:04:36;;;;;;;58.75;20.92;;;;;;;;;;6268292;28;20059;-64
2022/10/29 02:08:03;;;;;;;60.38;21.23;;;;;;;;;;6266797;28;20855;-64
2022/10/29 02:11:14;;;;;;;53.15;20.27;;;;;;;;;;6263693;28;20860;-64
2022/10/29 02:14:44;;;;;;;52.67;19.83;;;;;;;;;;6266551;28;20109;-64
2022/10/29 02:17:45;;;;;;;54.97;19.92;;;;;;;;;;6267487;28;20049;-65
2022/10/29 02:20:46;;;;;;;56.47;20.80;;;;;;;;;;6265740;28;20047;-64
2022/10/29 02:23:46;;;;;;;57.60;19.83;;;;;;;;;;6266352;28;20186;-66
2022/10/29 02:26:47;;;;;;;53.08;20.08;;;;;;;;;;6266977;28;20536;-64
2022/10/29 02:29:47;;;;;;;50.55;18.92;;;;;;;;;;6266038;28;20049;-64
2022/10/29 02:32:48;;;;;;;74.55;20.38;;;;;;;;;;6266214;28;20049;-64
2022/10/29 02:35:48;;;;;;;53.67;18.52;;;;;;;;;;6267069;28;20102;-64
2022/10/29 02:38:49;;;;;;;47.80;17.52;;;;;;;;;;6268581;28;20041;-64
2022/10/29 02:41:51;;;;;;;47.75;18.73;;;;;;;;;;6268734;28;20072;-64
2022/10/29 02:44:51;;;;;;;45.92;18.25;;;;;;;;;;6268336;28;20473;-65
2022/10/29 02:47:52;;;;;;;45.60;17.13;;;;;;;;;;6267648;28;20141;-65
2022/10/29 02:50:52;;;;;;;43.22;16.67;;;;;;;;;;6268703;28;20081;-64
2022/10/29 02:53:53;;;;;;;46.97;17.38;;;;;;;;;;6270550;28;20076;-64
2022/10/29 02:56:53;;;;;;;50.25;18.60;;;;;;;;;;6268882;28;20045;-65
2022/10/29 02:59:54;;;;;;;54.90;18.95;;;;;;;;;;6268460;28;20045;-64
2022/10/29 03:02:54;;;;;;;46.47;18.08;;;;;;;;;;6267934;28;20041;-64
2022/10/29 03:05:55;;;;;;;44.20;18.40;;;;;;;;;;6266348;28;20044;-64
2022/10/29 03:08:55;;;;;;;47.63;16.83;;;;;;;;;;6276850;28;20045;-64
2022/10/29 03:11:56;;;;;;;40.78;15.77;;;;;;;;;;6266102;28;20098;-65
2022/10/29 03:14:57;;;;;;;39.25;16.17;;;;;;;;;;6266498;28;20053;-64
2022/10/29 03:17:57;;;;;;;46.17;17.85;;;;;;;;;;6275979;28;20053;-64
2022/10/29 03:20:58;;;;;;;48.40;16.77;;;;;;;;;;6266151;28;20052;-64
2022/10/29 03:23:58;;;;;;;57.10;19.60;;;;;;;;;;6266963;28;20114;-65
2022/10/29 03:26:59;;;;;;;43.00;17.77;;;;;;;;;;6267609;28;20125;-65
2022/10/29 03:29:59;;;;;;;48.95;19.15;;;;;;;;;;6264129;28;20067;-65
2022/10/29 03:33:00;;;;;;;49.80;18.38;;;;;;;;;;6263615;28;20040;-66
2022/10/29 03:36:04;;;;;;;52.47;17.45;;;;;;;;;;6266915;28;20057;-65
2022/10/29 03:39:05;;;;;;;49.80;19.67;;;;;;;;;;6264917;28;20076;-65
2022/10/29 03:42:06;;;;;;;53.67;19.42;;;;;;;;;;6266575;28;20045;-65
2022/10/29 03:45:08;;;;;;;50.35;17.98;;;;;;;;;;6263747;28;20412;-65
2022/10/29 03:48:09;;;;;;;47.03;17.52;;;;;;;;;;6265799;28;20076;-64
2022/10/29 03:51:09;;;;;;;41.53;15.90;;;;;;;;;;6268585;28;20041;-65
2022/10/29 03:54:10;;;;;;;41.75;15.07;;;;;;;;;;6264407;28;20076;-65
2022/10/29 03:57:10;;;;;;;41.38;15.18;;;;;;;;;;6278083;28;20056;-64
2022/10/29 04:00:12;;;;;;;39.80;15.10;;;;;;;;;;6267938;28;20135;-64
2022/10/29 04:03:12;;;;;;;39.55;14.77;;;;;;;;;;6263210;28;20040;-65
2022/10/29 04:06:14;;;;;;;40.45;15.35;;;;;;;;;;6260837;28;20074;-65
2022/10/29 04:09:15;;;;;;;;;;;;;;;;;;6265797;28;20207;-65
2022/10/29 04:12:15;;;;;;;34.38;13.55;;;;;;;;;;6280339;28;19920;-65
2022/10/29 04:15:16;;;;;;;43.58;16.13;;;;;;;;;;6269541;28;20053;-65
2022/10/29 04:18:16;;;;;;;38.70;14.27;;;;;;;;;;6281232;28;20080;-65
2022/10/29 04:21:17;;;;;;;38.25;13.80;;;;;;;;;;6272788;28;20510;-65
2022/10/29 04:24:17;;;;;;;37.30;14.32;;;;;;;;;;6280354;28;20056;-65
2022/10/29 04:27:18;;;;;;;42.92;15.10;;;;;;;;;;6269657;28;20048;-64
2022/10/29 04:30:18;;;;;;;47.47;16.30;;;;;;;;;;6270659;28;20169;-65
2022/10/29 04:33:19;;;;;;;38.42;15.00;;;;;;;;;;6272755;28;20075;-66
2022/10/29 04:36:20;;;;;;;44.50;15.55;;;;;;;;;;6295431;28;20401;-65
2022/10/29 04:39:20;;;;;;;40.03;14.68;;;;;;;;;;6272846;28;20044;-65
2022/10/29 04:42:21;;;;;;;38.25;14.80;;;;;;;;;;6269018;28;20131;-65
2022/10/29 04:45:21;;;;;;;38.55;14.77;;;;;;;;;;6270280;28;20554;-64
2022/10/29 04:48:23;;;;;;;35.10;13.95;;;;;;;;;;6274616;28;20044;-64
2022/10/29 04:51:25;;;;;;;39.65;15.55;;;;;;;;;;6266758;28;20048;-63
2022/10/29 04:54:26;;;;;;;;;;;;;;;;;;6270426;28;20089;-63
2022/10/29 04:57:26;;;;;;;41.63;15.48;;;;;;;;;;6269827;28;19930;-63
2022/10/29 05:00:27;;;;;;;45.20;14.75;;;;;;;;;;6283611;28;20096;-64
2022/10/29 05:03:27;;;;;;;44.28;16.02;;;;;;;;;;6270338;28;20048;-63
2022/10/29 05:06:28;;;;;;;41.45;17.15;;;;;;;;;;6271104;28;20080;-64
2022/10/29 05:09:28;;;;;;;46.03;19.80;;;;;;;;;;6270794;28;20051;-64
2022/10/29 05:12:29;;;;;;;62.53;32.45;;;;;;;;;;6269921;28;20140;-64
2022/10/29 05:15:30;;;;;;;46.97;18.70;;;;;;;;;;6295301;28;20051;-64
2022/10/29 05:18:30;;;;;;;52.67;22.50;;;;;;;;;;6284985;28;20164;-64
2022/10/29 05:21:31;;;;;;;42.35;16.17;;;;;;;;;;6272083;28;20048;-64
2022/10/29 05:24:32;;;;;;;40.93;14.23;;;;;;;;;;6276644;28;20402;-64
2022/10/29 05:27:32;;;;;;;47.15;15.13;;;;;;;;;;6284445;28;20056;-65
2022/10/29 05:30:34;;;;;;;44.58;15.77;;;;;;;;;;6277872;28;20044;-64
2022/10/29 05:33:35;;;;;;;38.65;13.57;;;;;;;;;;6268716;28;20115;-64
2022/10/29 05:36:35;;;;;;;35.13;14.18;;;;;;;;;;6271756;28;20484;-64
2022/10/29 05:39:36;;;;;;;35.45;12.73;;;;;;;;;;6268904;28;20114;-64
2022/10/29 05:42:37;;;;;;;34.47;12.30;;;;;;;;;;6266749;28;20114;-64
2022/10/29 05:45:37;;;;;;;40.60;14.43;;;;;;;;;;6271655;28;20049;-63
2022/10/29 05:48:38;;;;;;;87.13;32.00;;;;;;;;;;6269350;28;20449;-64
2022/10/29 05:51:39;;;;;;;40.95;16.55;;;;;;;;;;6265594;28;20045;-64
2022/10/29 05:54:39;;;;;;;46.38;16.67;;;;;;;;;;6270416;28;20605;-64
2022/10/29 05:57:40;;;;;;;36.22;13.88;;;;;;;;;;6264879;28;20052;-65
2022/10/29 06:00:43;;;;;;;36.47;14.40;;;;;;;;;;6281323;28;20045;-65
2022/10/29 06:03:43;;;;;;;35.65;13.88;;;;;;;;;;6290695;28;20089;-65
2022/10/29 06:06:44;;;;;;;35.58;14.38;;;;;;;;;;6283885;28;20483;-64
2022/10/29 06:09:44;;;;;;;37.65;13.55;;;;;;;;;;6293690;28;20139;-63
2022/10/29 06:12:45;;;;;;;35.25;12.07;;;;;;;;;;6293102;28;20063;-64
2022/10/29 06:15:47;;;;;;;36.65;12.40;;;;;;;;;;6289460;28;20458;-62
2022/10/29 06:18:48;;;;;;;35.10;12.45;;;;;;;;;;6270323;28;20045;-63
2022/10/29 06:21:48;;;;;;;32.17;11.77;;;;;;;;;;6269496;28;20051;-63
2022/10/29 06:24:49;;;;;;;31.35;11.60;;;;;;;;;;6268048;28;20072;-65
2022/10/29 06:28:00;;;;;;;30.75;12.88;;;;;;;;;;6287143;28;20417;-63
2022/10/29 06:31:01;;;;;;;32.83;12.60;;;;;;;;;;6275862;28;20045;-64
2022/10/29 06:34:02;;;;;;;34.88;13.00;;;;;;;;;;6265431;28;20052;-64
2022/10/29 06:37:02;;;;;;;33.00;12.57;;;;;;;;;;6269114;28;20090;-65
2022/10/29 06:40:03;;;;;;;35.50;13.18;;;;;;;;;;6268636;28;20052;-65
2022/10/29 06:43:06;;;;;;;31.63;12.50;;;;;;;;;;6267891;28;20054;-65
2022/10/29 06:46:06;;;;;;;37.03;13.77;;;;;;;;;;6269743;28;20148;-64
2022/10/29 06:49:08;;;;;;;39.65;13.23;;;;;;;;;;6280436;28;20487;-65
2022/10/29 06:52:09;;;;;;;33.92;14.00;;;;;;;;;;6282412;28;20049;-64
2022/10/29 06:55:09;;;;;;;38.67;15.00;;;;;;;;;;6281381;28;20067;-64
2022/10/29 06:58:12;;;;;;;39.63;13.00;;;;;;;;;;6267580;28;20097;-66
2022/10/29 07:01:13;;;;;;;38.47;14.23;;;;;;;;;;6282460;28;20052;-66
2022/10/29 07:04:13;;;;;;;39.22;13.63;;;;;;;;;;6266999;28;20063;-67
2022/10/29 07:07:14;;;;;;;34.20;13.50;;;;;;;;;;6267112;28;20499;-67
2022/10/29 07:10:15;;;;;;;33.95;13.43;;;;;;;;;;6268915;28;20439;-67
2022/10/29 07:13:16;;;;;;;39.67;14.65;;;;;;;;;;6266738;28;20045;-67
2022/10/29 07:16:16;;;;;;;36.85;14.07;;;;;;;;;;6271833;28;20044;-66
2022/10/29 07:19:17;;;;;;;37.22;13.52;;;;;;;;;;6277898;28;20045;-68
2022/10/29 07:22:17;;;;;;;42.92;15.10;;;;;;;;;;6268176;28;20045;-63
2022/10/29 07:25:18;;;;;;;43.65;15.23;;;;;;;;;;6266855;28;20053;-64
2022/10/29 07:28:21;;;;;;;41.92;15.15;;;;;;;;;;6267558;28;20048;-65
2022/10/29 07:31:22;;;;;;;42.80;15.45;;;;;;;;;;6267546;28;20077;-65
2022/10/29 07:34:23;;;;;;;44.25;16.63;;;;;;;;;;6254392;28;20063;-68
2022/10/29 07:37:23;;;;;;;45.33;16.67;;;;;;;;;;6267462;28;20052;-66
2022/10/29 07:40:24;;;;;;;53.42;19.45;;;;;;;;;;6268109;28;20059;-64
2022/10/29 07:43:24;;;;;;;47.70;18.02;;;;;;;;;;6261175;28;20479;-64
2022/10/29 07:46:25;;;;;;;61.33;18.98;;;;;;;;;;6265805;28;20098;-67
2022/10/29 07:49:25;;;;;;;48.63;18.35;;;;;;;;;;6264590;28;20916;-66
2022/10/29 07:52:26;;;;;;;48.45;18.05;;;;;;;;;;6264370;28;20121;-65
2022/10/29 07:55:26;;;;;;;53.20;19.10;;;;;;;;;;6265075;28;20049;-65
2022/10/29 07:58:27;;;;;;;49.35;17.55;;;;;;;;;;6273633;28;20045;-65
2022/10/29 08:01:28;;;;;;;49.03;19.27;;;;;;;;;;6273501;28;20430;-62
2022/10/29 08:04:29;;;;;;;52.53;19.88;;;;;;;;;;6271982;28;20052;-62
2022/10/29 08:07:30;;;;;;;53.45;19.35;;;;;;;;;;6274723;28;20046;-65
2022/10/29 08:10:32;;;;;;;54.55;20.52;;;;;;;;;;6273055;28;20499;-65
2022/10/29 08:13:33;;;;;;;56.42;21.15;;;;;;;;;;6272094;28;20415;-64
2022/10/29 08:16:33;;;;;;;51.08;19.92;;;;;;;;;;6271212;28;20049;-64
2022/10/29 08:19:34;;;;;;;54.58;19.38;;;;;;;;;;6274847;28;20091;-64
2022/10/29 08:22:35;;;;;;;51.38;19.15;;;;;;;;;;6274248;28;20044;-64
2022/10/29 08:25:40;;;;;;;51.25;21.27;;;;;;;;;;6270972;28;20419;-64
2022/10/29 08:28:41;;;;;;;53.25;21.13;;;;;;;;;;6271350;28;20048;-64
2022/10/29 08:31:42;;;;;;;53.38;20.45;;;;;;;;;;6272071;28;20057;-64
2022/10/29 08:34:42;;;;;;;54.40;21.40;;;;;;;;;;6267928;28;20062;-63
2022/10/29 08:37:44;;;;;;;51.17;20.67;;;;;;;;;;6271948;28;20617;-63
2022/10/29 08:41:12;;;;;;;53.58;20.17;;;;;;;;;;6296218;28;20056;-64
2022/10/29 08:44:23;;;;;;;54.42;20.95;;;;;;;;;;6275493;28;20502;-63
2022/10/29 08:47:24;;;;;;;47.40;19.17;;;;;;;;;;6273264;28;20097;-62
2022/10/29 08:50:32;;;;;;;47.40;19.17;;;;;;;;;;6287904;28;20055;-65
2022/10/29 08:53:40;;;;;;;49.67;19.67;;;;;;;;;;6289532;28;20040;-63
2022/10/29 08:56:50;;;;;;;51.08;20.63;;;;;;;;;;6274196;28;20073;-65
2022/10/29 09:00:16;;;;;;;46.95;18.58;;;;;;;;;;6270463;28;20040;-62
2022/10/29 09:03:17;;;;;;;50.13;19.58;;;;;;;;;;6268510;28;20097;-65
2022/10/29 09:06:54;;;;;;;49.17;21.58;;;;;;;;;;6266912;28;20053;-65
2022/10/29 09:10:01;;;;;;;43.55;18.38;;;;;;;;;;6277341;28;20148;-65
2022/10/29 09:13:31;;;;;;;44.13;19.60;;;;;;;;;;6289972;28;20079;-65
2022/10/29 09:16:58;;;;;;;45.70;20.10;;;;;;;;;;6269710;28;20184;-64
2022/10/29 09:20:18;;;;;;;50.88;19.75;;;;;;;;;;6264563;28;20115;-67
2022/10/29 09:23:37;;;;;;;52.42;20.00;;;;;;;;;;6263256;28;20207;-65
2022/10/29 09:27:00;;;;;;;46.92;18.98;;;;;;;;;;6270332;28;20437;-65
2022/10/29 09:30:21;;;;;;;45.45;20.13;;;;;;;;;;6271175;28;20052;-65
2022/10/29 09:33:22;;;;;;;41.53;17.48;;;;;;;;;;6293895;28;20055;-64
2022/10/29 09:36:23;;;;;;;40.58;18.00;;;;;;;;;;6273404;28;20860;-64
2022/10/29 09:39:34;;;;;;;47.28;17.38;;;;;;;;;;6269397;28;20062;-64
2022/10/29 09:42:38;;;;;;;40.53;18.15;;;;;;;;;;6266793;28;20081;-65
2022/10/29 09:45:57;;;;;;;44.72;18.50;;;;;;;;;;6282791;28;20048;-64
2022/10/29 09:49:19;;;;;;;43.35;18.70;;;;;;;;;;6287550;28;20128;-66
2022/10/29 09:52:23;;;;;;;44.65;18.27;;;;;;;;;;6267953;28;20135;-62
2022/10/29 09:55:42;;;;;;;42.88;17.35;;;;;;;;;;6269184;28;20571;-64
2022/10/29 09:58:47;;;;;;;36.08;15.70;;;;;;;;;;6268362;28;20048;-64
2022/10/29 10:01:48;;;;;;;37.17;16.05;;;;;;;;;;6291840;28;20135;-64
2022/10/29 10:04:53;;;;;;;37.35;14.25;;;;;;;;;;6269009;28;20060;-64
2022/10/29 10:08:13;;;;;;;33.95;13.38;;;;;;;;;;6275816;28;20594;-64
2022/10/29 10:11:18;;;;;;;32.28;12.93;;;;;;;;;;6291318;28;20056;-64
2022/10/29 10:14:21;;;;;;;32.92;13.55;;;;;;;;;;6266984;28;20052;-65
2022/10/29 10:17:21;;;;;;;30.20;13.60;;;;;;;;;;6279573;28;20052;-65
2022/10/29 10:20:30;;;;;;;29.15;12.70;;;;;;;;;;6267527;28;20041;-65
2022/10/29 10:23:48;;;;;;;24.77;11.93;;;;;;;;;;6263573;28;20048;-64
2022/10/29 10:26:49;;;;;;;26.95;12.70;;;;;;;;;;6283475;28;20131;-67
2022/10/29 10:30:12;;;;;;;25.48;11.52;;;;;;;;;;6285565;28;20056;-65
2022/10/29 10:33:24;;;;;;;30.45;12.07;;;;;;;;;;6293437;28;20064;-64
2022/10/29 10:36:28;;;;;;;29.30;11.68;;;;;;;;;;6293382;28;20126;-67
2022/10/29 10:39:33;;;;;;;24.95;11.63;;;;;;;;;;6292122;28;20044;-68
2022/10/29 10:42:38;;;;;;;26.88;11.35;;;;;;;;;;6293123;28;20098;-65
2022/10/29 10:45:41;;;;;;;28.65;12.00;;;;;;;;;;6293338;28;20053;-65
2022/10/29 10:48:41;;;;;;;28.33;11.50;;;;;;;;;;6291892;28;20064;-65
2022/10/29 10:51:47;;;;;;;31.10;12.48;;;;;;;;;;6293365;28;20491;-68
2022/10/29 10:55:02;;;;;;;26.45;11.75;;;;;;;;;;6293617;28;20044;-67
2022/10/29 10:58:24;;;;;;;23.25;10.05;;;;;;;;;;6293132;28;20045;-65
2022/10/29 11:01:37;;;;;;;25.05;10.85;;;;;;;;;;6291551;28;20441;-65
2022/10/29 11:04:40;;;;;;;26.40;11.57;;;;;;;;;;6292862;28;20436;-66
2022/10/29 11:07:47;;;;;;;31.00;11.65;;;;;;;;;;6284024;28;20048;-66
2022/10/29 11:10:56;;;;;;;25.70;11.30;;;;;;;;;;6292955;28;20098;-66
2022/10/29 11:14:09;;;;;;;25.67;11.15;;;;;;;;;;6285024;28;20040;-65
2022/10/29 11:17:29;;;;;;;25.80;10.70;;;;;;;;;;6287135;28;20127;-66
2022/10/29 11:20:35;;;;;;;24.38;11.65;;;;;;;;;;6287347;28;20041;-65
2022/10/29 11:23:55;;;;;;;30.15;11.68;;;;;;;;;;6280084;28;20463;-66
2022/10/29 11:27:07;;;;;;;27.70;11.50;;;;;;;;;;6278026;28;20032;-65
2022/10/29 11:30:13;;;;;;;28.45;11.02;;;;;;;;;;6289406;28;20490;-64
2022/10/29 11:33:40;;;;;;;25.38;10.77;;;;;;;;;;6292163;28;20127;-65
2022/10/29 11:37:10;;;;;;;26.05;11.13;;;;;;;;;;6292338;28;20048;-67
2022/10/29 11:40:13;;;;;;;26.63;9.95;;;;;;;;;;6280900;28;20057;-65
2022/10/29 11:43:18;;;;;;;31.02;11.48;;;;;;;;;;6279120;28;20045;-65
2022/10/29 11:46:37;;;;;;;25.33;10.55;;;;;;;;;;6281755;28;20049;-65
2022/10/29 11:50:00;;;;;;;26.83;11.30;;;;;;;;;;6289241;28;20048;-65
2022/10/29 11:53:06;;;;;;;28.30;10.45;;;;;;;;;;6290703;28;20059;-64
2022/10/29 11:56:29;;;;;;;25.73;10.80;;;;;;;;;;6292147;28;20518;-65
2022/10/29 12:00:07;;;;;;;28.15;12.00;;;;;;;;;;6280011;28;20052;-65
2022/10/29 12:03:22;;;;;;;26.65;11.77;;;;;;;;;;6292019;28;20083;-64
2022/10/29 12:06:53;;;;;;;25.35;11.57;;;;;;;;;;6287775;28;20059;-64
2022/10/29 12:10:03;;;;;;;30.20;11.52;;;;;;;;;;6278342;28;20103;-66
2022/10/29 12:13:25;;;;;;;31.00;12.45;;;;;;;;;;6291441;28;20052;-65
2022/10/29 12:16:43;;;;;;;32.75;12.43;;;;;;;;;;6292104;28;20483;-65
2022/10/29 12:19:50;;;;;;;26.60;11.35;;;;;;;;;;6290971;28;20055;-65
2022/10/29 12:23:00;;;;;;;28.67;11.35;;;;;;;;;;6278557;28;20048;-64
2022/10/29 12:26:04;;;;;;;25.55;10.70;;;;;;;;;;6282550;28;20126;-65
2022/10/29 12:29:28;;;;;;;26.92;11.90;;;;;;;;;;6289116;28;20064;-65
2022/10/29 12:32:46;;;;;;;29.77;11.57;;;;;;;;;;6290510;28;20049;-64
2022/10/29 12:36:02;;;;;;;24.25;10.73;;;;;;;;;;6277295;28;20045;-64
2022/10/29 12:39:13;;;;;;;26.25;11.00;;;;;;;;;;6286731;28;20064;-65
2022/10/29 12:42:23;;;;;;;26.33;11.55;;;;;;;;;;6286907;28;20079;-64
2022/10/29 12:45:29;;;;;;;24.25;11.00;;;;;;;;;;6286972;28;20048;-65
2022/10/29 12:48:52;;;;;;;27.77;12.00;;;;;;;;;;6293904;28;20040;-65
2022/10/29 12:52:01;;;;;;;28.10;11.15;;;;;;;;;;6295856;28;20381;-66
2022/10/29 12:55:05;;;;;;;24.15;11.07;;;;;;;;;;6295044;28;20095;-65
2022/10/29 12:58:43;;;;;;;27.50;10.93;;;;;;;;;;6292093;28;20048;-65
2022/10/29 13:01:44;;;;;;;25.85;10.55;;;;;;;;;;6282157;28;20509;-64
2022/10/29 13:05:09;;;;;;;24.67;10.38;;;;;;;;;;6270199;28;20065;-64
2022/10/29 13:08:25;;;;;;;23.75;10.07;;;;;;;;;;6271145;28;20053;-65
2022/10/29 13:11:42;;;;;;;33.50;12.05;;;;;;;;;;6269819;28;20041;-69
2022/10/29 13:14:48;;;;;;;29.02;12.25;;;;;;;;;;6269943;28;20078;-68
2022/10/29 13:17:51;;;;;;;31.77;12.88;;;;;;;;;;6270471;28;20136;-69
2022/10/29 13:20:53;;;;;;;31.48;13.02;;;;;;;;;;6269593;28;20476;-68
2022/10/29 13:24:03;;;;;;;33.67;13.27;;;;;;;;;;6268903;28;20045;-67
2022/10/29 13:27:27;;;;;;;29.70;12.50;;;;;;;;;;6270132;28;20400;-65
2022/10/29 13:30:28;;;;;;;27.58;12.35;;;;;;;;;;6272261;28;20056;-64
2022/10/29 13:33:28;;;;;;;32.10;12.80;;;;;;;;;;6277630;28;20061;-66
2022/10/29 13:36:36;;;;;;;31.33;12.32;;;;;;;;;;6281453;28;20506;-67
2022/10/29 13:39:36;;;;;;;31.35;12.20;;;;;;;;;;6292198;28;20040;-67
2022/10/29 13:42:37;;;;;;;31.65;12.80;;;;;;;;;;6294166;28;20449;-65
2022/10/29 13:45:41;;;;;;;28.10;13.25;;;;;;;;;;6268858;28;20045;-66
2022/10/29 13:48:44;;;;;;;31.13;13.13;;;;;;;;;;6269882;28;20041;-66
2022/10/29 13:51:52;;;;;;;37.38;13.73;;;;;;;;;;6270087;28;20076;-67
2022/10/29 13:55:07;;;;;;;32.20;14.63;;;;;;;;;;6268696;28;20048;-67
2022/10/29 13:58:30;;;;;;;36.15;14.40;;;;;;;;;;6268736;28;20124;-66
2022/10/29 14:01:32;;;;;;;36.88;14.77;;;;;;;;;;6269211;28;20395;-67
2022/10/29 14:04:39;;;;;;;31.80;13.23;;;;;;;;;;6270496;28;20553;-69
2022/10/29 14:07:50;;;;;;;38.72;14.23;;;;;;;;;;6263697;28;20049;-69
2022/10/29 14:10:58;;;;;;;36.95;16.98;;;;;;;;;;6269605;28;20045;-68
2022/10/29 14:14:01;;;;;;;32.40;16.33;;;;;;;;;;6275956;28;20121;-69
2022/10/29 14:17:14;;;;;;;28.33;14.07;;;;;;;;;;6288567;28;20064;-68
2022/10/29 14:20:26;;;;;;;32.63;17.75;;;;;;;;;;6281574;28;20045;-68
2022/10/29 14:23:29;;;;;;;36.45;19.33;;;;;;;;;;6281321;28;20068;-69
2022/10/29 14:26:35;;;;;;;33.80;15.18;;;;;;;;;;6258010;28;20059;-69
2022/10/29 14:29:37;;;;;;;36.83;15.77;;;;;;;;;;6257049;28;20167;-68
2022/10/29 14:32:39;;;;;;;30.27;14.38;;;;;;;;;;6257843;28;20411;-69
2022/10/29 14:35:40;;;;;;;30.80;14.90;;;;;;;;;;6251451;28;20155;-68
2022/10/29 14:38:41;;;;;;;33.45;15.13;;;;;;;;;;6255136;28;20044;-67
2022/10/29 14:41:42;;;;;;;35.03;16.40;;;;;;;;;;6249591;28;20931;-67
2022/10/29 14:44:48;;;;;;;38.88;17.42;;;;;;;;;;6252779;28;20981;-69
2022/10/29 14:48:00;;;;;;;42.20;17.23;;;;;;;;;;6254134;28;20277;-69
2022/10/29 14:51:00;;;;;;;33.35;16.10;;;;;;;;;;6255161;28;20056;-69
2022/10/29 14:54:03;;;;;;;35.35;16.13;;;;;;;;;;6255942;28;20508;-69
2022/10/29 14:57:10;;;;;;;34.20;17.08;;;;;;;;;;6255125;28;20155;-67
2022/10/29 15:00:27;;;;;;;38.97;17.77;;;;;;;;;;6260737;28;20411;-67
2022/10/29 15:03:33;;;;;;;35.50;17.58;;;;;;;;;;6254987;28;20572;-68
2022/10/29 15:06:33;;;;;;;39.17;18.23;;;;;;;;;;6258377;28;20406;-67
2022/10/29 15:09:34;;;;;;;41.50;18.27;;;;;;;;;;6258524;28;20818;-67
2022/10/29 15:12:37;;;;;;;38.15;17.98;;;;;;;;;;6260611;28;20081;-66
2022/10/29 15:15:37;;;;;;;46.25;19.15;;;;;;;;;;6254753;28;20076;-68
2022/10/29 15:18:38;;;;;;;42.22;19.90;;;;;;;;;;6256513;28;20044;-68
2022/10/29 15:21:39;;;;;;;41.65;18.48;;;;;;;;;;6258495;28;20454;-68
2022/10/29 15:24:46;;;;;;;48.05;20.63;;;;;;;;;;6254035;28;20419;-69
2022/10/29 15:27:47;;;;;;;49.80;21.10;;;;;;;;;;6257708;28;20060;-66
2022/10/29 15:30:48;;;;;;;50.65;22.70;;;;;;;;;;6257932;28;20052;-66
2022/10/29 15:33:53;;;;;;;49.33;22.65;;;;;;;;;;6256620;28;20056;-67
2022/10/29 15:36:56;;;;;;;52.65;22.30;;;;;;;;;;6253057;28;20218;-69
2022/10/29 15:40:09;;;;;;;51.35;21.95;;;;;;;;;;6257226;28;20052;-71
2022/10/29 15:43:29;;;;;;;54.65;23.08;;;;;;;;;;6258558;28;20628;-69
2022/10/29 15:46:46;;;;;;;52.55;21.98;;;;;;;;;;6254081;28;20064;-68
2022/10/29 15:49:46;;;;;;;45.30;22.08;;;;;;;;;;6255474;28;20049;-69
2022/10/29 15:52:52;;;;;;;47.88;22.25;;;;;;;;;;6257254;28;20045;-67
2022/10/29 15:55:53;;;;;;;48.03;20.80;;;;;;;;;;6256151;28;20048;-66
2022/10/29 15:58:53;;;;;;;45.00;20.02;;;;;;;;;;6255349;28;20052;-67
2022/10/29 16:01:54;;;;;;;48.38;20.10;;;;;;;;;;6256684;28;20055;-66
2022/10/29 16:04:55;;;;;;;53.53;21.10;;;;;;;;;;6253675;28;20524;-67
2022/10/29 16:07:59;;;;;;;46.67;21.02;;;;;;;;;;6254448;28;20059;-66
2022/10/29 16:11:02;;;;;;;48.58;22.65;;;;;;;;;;6255668;28;20045;-65
2022/10/29 16:14:02;;;;;;;46.30;22.33;;;;;;;;;;6257026;28;20088;-66
2022/10/29 16:17:08;;;;;;;46.85;20.00;;;;;;;;;;6255355;28;20137;-66
2022/10/29 16:20:17;;;;;;;46.88;21.08;;;;;;;;;;6260519;28;20072;-67
2022/10/29 16:23:17;;;;;;;45.30;20.50;;;;;;;;;;6262940;28;20076;-67
2022/10/29 16:26:21;;;;;;;48.78;21.33;;;;;;;;;;6260208;28;20049;-68
2022/10/29 16:29:22;;;;;;;46.67;21.92;;;;;;;;;;6259960;28;20136;-67
2022/10/29 16:32:24;;;;;;;49.95;20.70;;;;;;;;;;6260978;28;20933;-69
2022/10/29 16:35:26;;;;;;;47.33;21.73;;;;;;;;;;6260618;28;20576;-68
2022/10/29 16:38:27;;;;;;;47.03;21.30;;;;;;;;;;6261046;28;20520;-68
2022/10/29 16:41:28;;;;;;;43.33;20.98;;;;;;;;;;6260401;28;20056;-69
2022/10/29 16:44:28;;;;;;;44.33;20.02;;;;;;;;;;6260829;28;20061;-68
2022/10/29 16:47:29;;;;;;;49.80;21.25;;;;;;;;;;6261161;28;20051;-69
2022/10/29 16:50:31;;;;;;;45.60;20.48;;;;;;;;;;6258749;28;21303;-69
2022/10/29 16:53:32;;;;;;;46.72;20.52;;;;;;;;;;6261783;28;20060;-67
2022/10/29 16:56:33;;;;;;;46.20;20.58;;;;;;;;;;6259576;28;20590;-69
2022/10/29 16:59:33;;;;;;;49.28;20.52;;;;;;;;;;6261652;28;21089;-68
2022/10/29 17:02:34;;;;;;;49.85;21.17;;;;;;;;;;6259646;28;20134;-68
2022/10/29 17:05:36;;;;;;;49.55;22.67;;;;;;;;;;6258859;28;20057;-67
2022/10/29 17:08:39;;;;;;;51.90;21.52;;;;;;;;;;6259928;28;20123;-68
2022/10/29 17:11:40;;;;;;;50.25;21.55;;;;;;;;;;6259276;28;20111;-67
2022/10/29 17:14:40;;;;;;;51.03;21.33;;;;;;;;;;6261342;28;20152;-68
2022/10/29 17:17:41;;;;;;;49.10;23.20;;;;;;;;;;6262030;28;20058;-72
2022/10/29 17:20:41;;;;;;;50.35;21.83;;;;;;;;;;6260416;28;20041;-70
2022/10/29 17:23:42;;;;;;;58.17;24.10;;;;;;;;;;6261225;28;20159;-67
2022/10/29 17:26:43;;;;;;;49.88;23.05;;;;;;;;;;6259085;28;20156;-68
2022/10/29 17:29:43;;;;;;;70.05;29.27;;;;;;;;;;6257580;28;20037;-69
2022/10/29 17:32:44;;;;;;;74.90;29.25;;;;;;;;;;6261495;28;20063;-69
2022/10/29 17:35:45;;;;;;;66.57;27.88;;;;;;;;;;6259703;28;20571;-68
2022/10/29 17:38:45;;;;;;;57.38;25.58;;;;;;;;;;6262389;28;20526;-68
2022/10/29 17:41:47;;;;;;;58.72;28.08;;;;;;;;;;6257973;28;20143;-69
2022/10/29 17:44:47;;;;;;;53.13;23.40;;;;;;;;;;6260355;28;20057;-65
2022/10/29 17:47:53;;;;;;;54.80;23.42;;;;;;;;;;6262036;28;20436;-68
2022/10/29 17:51:00;;;;;;;57.97;23.60;;;;;;;;;;6259475;28;20465;-68
2022/10/29 17:54:00;;;;;;;58.33;23.98;;;;;;;;;;6260646;28;20072;-68
2022/10/29 17:57:02;;;;;;;49.92;24.40;;;;;;;;;;6258079;28;20913;-66
2022/10/29 18:00:03;;;;;;;58.13;27.60;;;;;;;;;;6256720;28;20057;-66